createdAt,value
2018-11-23T00:00:18.224Z,-0.80
2018-11-23T00:02:22.500Z,-0.40
2018-11-23T00:04:26.006Z,-0.80
2018-11-23T00:06:29.388Z,-1.10
2018-11-23T00:08:32.836Z,3.80
2018-11-23T00:10:36.501Z,-0.90
2018-11-23T00:12:39.707Z,-1.20
2018-11-23T00:14:42.837Z,-0.80
2018-11-23T00:16:45.979Z,-0.80
2018-11-23T00:18:49.145Z,-1.00
2018-11-23T00:20:56.104Z,-0.90
2018-11-23T00:22:59.579Z,-0.90
2018-11-23T00:25:03.070Z,-0.90
2018-11-23T00:27:06.223Z,-2.60
2018-11-23T00:29:09.729Z,-0.80
2018-11-23T00:31:12.930Z,-0.70
2018-11-23T00:33:16.065Z,-0.80
2018-11-23T00:35:21.099Z,-1.00
2018-11-23T00:37:26.763Z,-0.80
2018-11-23T00:39:30.077Z,-0.80
2018-11-23T00:41:34.677Z,-0.90
2018-11-23T00:43:37.814Z,0.60
2018-11-23T00:49:47.593Z,-0.90
2018-11-23T00:51:51.139Z,-1.00
2018-11-23T00:53:56.557Z,-1.10
2018-11-23T00:55:59.911Z,-1.30
2018-11-23T01:00:11.430Z,-1.10
2018-11-23T01:04:17.636Z,-1.10
2018-11-23T01:06:20.832Z,-1.10
2018-11-23T01:08:26.717Z,-0.90
2018-11-23T01:10:30.741Z,0.20
2018-11-23T01:16:39.886Z,-1.50
2018-11-23T01:20:45.973Z,-1.20
2018-11-23T01:22:50.589Z,-1.20
2018-11-23T01:24:54.772Z,-1.20
2018-11-23T01:26:58.333Z,-1.20
2018-11-23T01:31:04.645Z,-1.20
2018-11-23T01:33:07.840Z,-0.10
2018-11-23T01:35:11.049Z,-1.40
2018-11-23T01:37:14.220Z,-1.20
2018-11-23T01:41:20.301Z,-1.20
2018-11-23T01:43:29.623Z,-1.30
2018-11-23T01:49:38.837Z,-1.10
2018-11-23T01:51:42.001Z,-1.30
2018-11-23T01:53:45.197Z,0.70
2018-11-23T01:55:48.357Z,-1.30
2018-11-23T01:57:51.598Z,-1.10
2018-11-23T01:59:56.013Z,-1.40
2018-11-23T02:04:02.270Z,-1.30
2018-11-23T02:06:05.430Z,-1.70
2018-11-23T02:08:12.163Z,-1.40
2018-11-23T02:10:16.572Z,-1.50
2018-11-23T02:12:19.805Z,-1.30
2018-11-23T02:14:22.997Z,-1.60
2018-11-23T02:16:26.130Z,1.20
2018-11-23T02:18:29.261Z,-1.40
2018-11-23T02:20:32.757Z,-1.40
2018-11-23T02:22:35.877Z,-1.30
2018-11-23T02:24:40.937Z,-4.00
2018-11-23T02:26:44.362Z,-1.00
2018-11-23T02:28:47.746Z,-1.10
2018-11-23T02:30:51.701Z,-4.30
2018-11-23T02:32:54.850Z,-4.80
2018-11-23T02:34:58.062Z,-1.50
2018-11-23T02:37:01.750Z,0.30
2018-11-23T02:39:06.849Z,-1.40
2018-11-23T02:41:12.061Z,-1.10
2018-11-23T02:43:15.528Z,-0.20
2018-11-23T02:45:21.921Z,-1.50
2018-11-23T02:47:25.119Z,-1.40
2018-11-23T02:49:28.244Z,-1.20
2018-11-23T02:51:31.394Z,-1.30
2018-11-23T02:53:34.609Z,-1.40
2018-11-23T02:55:38.749Z,-1.30
2018-11-23T02:57:42.193Z,-1.40
2018-11-23T02:59:45.641Z,-4.70
2018-11-23T03:01:49.173Z,0.80
2018-11-23T03:03:52.301Z,-1.40
2018-11-23T03:05:55.898Z,-1.40
2018-11-23T03:07:59.907Z,-3.80
2018-11-23T03:10:03.916Z,-1.30
2018-11-23T03:12:08.056Z,-1.60
2018-11-23T03:14:12.110Z,-1.40
2018-11-23T03:16:15.506Z,-1.10
2018-11-23T03:18:18.813Z,-1.40
2018-11-23T03:20:22.893Z,-1.40
2018-11-23T03:22:26.673Z,-1.20
2018-11-23T03:24:29.813Z,-1.00
2018-11-23T03:26:32.955Z,-1.20
2018-11-23T03:28:36.299Z,-1.20
2018-11-23T03:30:40.908Z,-1.20
2018-11-23T03:32:45.350Z,-1.30
2018-11-23T03:34:48.589Z,-1.30
2018-11-23T03:36:51.726Z,-1.30
2018-11-23T03:38:55.158Z,-3.40
2018-11-23T03:40:58.337Z,-1.30
2018-11-23T03:43:01.610Z,-1.60
2018-11-23T03:45:05.753Z,-1.50
2018-11-23T03:47:09.727Z,-1.50
2018-11-23T03:49:14.004Z,-2.80
2018-11-23T03:53:20.404Z,-3.30
2018-11-23T03:55:23.796Z,-1.50
2018-11-23T03:57:27.317Z,-1.40
2018-11-23T03:59:30.486Z,-1.60
2018-11-23T04:01:33.666Z,-1.40
2018-11-23T04:03:37.371Z,-1.50
2018-11-23T04:05:41.249Z,-1.40
2018-11-23T04:07:44.970Z,-1.60
2018-11-23T04:09:48.245Z,-3.30
2018-11-23T04:11:51.432Z,-1.80
2018-11-23T04:13:54.629Z,-1.40
2018-11-23T04:15:57.800Z,-1.50
2018-11-23T04:18:00.938Z,-1.80
2018-11-23T04:20:06.065Z,-1.90
2018-11-23T04:22:09.644Z,-1.70
2018-11-23T04:26:16.611Z,-1.80
2018-11-23T04:28:19.897Z,-4.20
2018-11-23T04:30:23.081Z,-0.50
2018-11-23T04:32:26.216Z,-1.60
2018-11-23T04:34:29.741Z,-1.80
2018-11-23T04:36:32.917Z,-2.00
2018-11-23T04:38:36.054Z,-2.00
2018-11-23T04:40:40.693Z,-1.80
2018-11-23T04:42:44.274Z,1.10
2018-11-23T04:44:48.719Z,1.10
2018-11-23T04:46:51.968Z,0.90
2018-11-23T04:50:58.050Z,-1.90
2018-11-23T04:53:01.216Z,-1.80
2018-11-23T04:55:05.525Z,-1.80
2018-11-23T04:57:08.872Z,-1.90
2018-11-23T04:59:14.699Z,-2.00
2018-11-23T05:01:17.872Z,-2.20
2018-11-23T05:03:21.122Z,-1.00
2018-11-23T05:05:24.715Z,-1.90
2018-11-23T05:07:27.864Z,-1.20
2018-11-23T05:09:31.001Z,-2.00
2018-11-23T05:11:34.221Z,0.00
2018-11-23T05:15:41.479Z,-1.90
2018-11-23T05:17:45.072Z,-1.90
2018-11-23T05:19:48.213Z,-1.70
2018-11-23T05:21:51.489Z,-1.70
2018-11-23T05:23:54.741Z,-1.70
2018-11-23T05:25:58.217Z,-1.60
2018-11-23T05:28:01.365Z,-1.50
2018-11-23T05:30:10.308Z,-1.50
2018-11-23T05:32:13.677Z,1.20
2018-11-23T05:34:16.937Z,-1.40
2018-11-23T05:36:20.342Z,-1.80
2018-11-23T05:38:23.783Z,-1.10
2018-11-23T05:42:29.925Z,-1.20
2018-11-23T05:46:36.405Z,-1.20
2018-11-23T05:48:40.043Z,-1.00
2018-11-23T05:50:43.462Z,-1.30
2018-11-23T05:52:46.673Z,-1.30
2018-11-23T05:54:50.085Z,-2.00
2018-11-23T05:56:53.284Z,-0.80
2018-11-23T05:58:56.453Z,-1.30
2018-11-23T06:00:59.638Z,-3.90
2018-11-23T06:03:02.889Z,-1.30
2018-11-23T06:05:06.265Z,-1.40
2018-11-23T06:07:10.323Z,-1.60
2018-11-23T06:09:13.697Z,0.10
2018-11-23T06:11:16.984Z,-1.90
2018-11-23T06:13:20.241Z,-5.80
2018-11-23T06:15:24.483Z,-1.60
2018-11-23T06:17:27.701Z,-1.50
2018-11-23T06:19:30.873Z,-1.70
2018-11-23T06:21:34.017Z,-1.40
2018-11-23T06:23:37.178Z,-0.90
2018-11-23T06:25:44.730Z,-1.80
2018-11-23T06:27:49.495Z,-1.60
2018-11-23T06:29:52.653Z,-1.70
2018-11-23T06:31:57.035Z,-1.70
2018-11-23T06:33:59.009Z,-1.70
2018-11-23T06:36:02.178Z,-1.70
2018-11-23T06:38:05.957Z,-1.90
2018-11-23T06:40:09.723Z,-1.80
2018-11-23T06:42:13.997Z,-2.10
2018-11-23T06:44:21.574Z,-1.90
2018-11-23T06:46:24.741Z,-1.90
2018-11-23T06:48:28.006Z,-1.90
2018-11-23T06:50:31.198Z,-1.70
2018-11-23T06:52:34.373Z,-1.70
2018-11-23T06:56:40.741Z,-1.70
2018-11-23T06:58:44.375Z,-1.80
2018-11-23T07:02:50.829Z,1.30
2018-11-23T07:04:53.974Z,-1.70
2018-11-23T07:06:57.201Z,-1.60
2018-11-23T07:09:00.965Z,-0.40
2018-11-23T07:11:04.281Z,-1.50
2018-11-23T07:13:08.397Z,-1.80
2018-11-23T07:15:13.438Z,-1.50
2018-11-23T07:17:16.780Z,-1.50
2018-11-23T07:19:20.020Z,0.60
2018-11-23T07:21:23.190Z,-1.30
2018-11-23T07:23:26.346Z,0.10
2018-11-23T07:25:29.503Z,-1.50
2018-11-23T07:27:32.661Z,-1.10
2018-11-23T07:29:36.944Z,-1.20
2018-11-23T07:31:40.613Z,-1.20
2018-11-23T07:33:44.113Z,-1.30
2018-11-23T07:35:48.117Z,-1.30
2018-11-23T07:37:51.590Z,-3.80
2018-11-23T07:41:09.309Z,-1.20
2018-11-23T07:43:14.082Z,-1.50
2018-11-23T07:45:17.518Z,-0.40
2018-11-23T07:47:20.940Z,-1.60
2018-11-23T07:53:31.380Z,-1.00
2018-11-23T07:55:34.545Z,-0.90
2018-11-23T07:57:37.705Z,-0.80
2018-11-23T07:59:41.917Z,-0.70
2018-11-23T08:01:45.546Z,-0.70
2018-11-23T08:03:48.837Z,-0.70
2018-11-23T08:05:52.901Z,-0.50
2018-11-23T08:07:56.063Z,-0.40
2018-11-23T08:09:58.818Z,0.20
2018-11-23T08:12:02.129Z,1.50
2018-11-23T08:14:05.306Z,0.10
2018-11-23T08:16:08.472Z,0.20
2018-11-23T08:18:12.421Z,0.10
2018-11-23T08:20:17.165Z,0.10
2018-11-23T08:22:20.451Z,-0.10
2018-11-23T08:24:24.655Z,0.40
2018-11-23T08:28:30.693Z,-3.70
2018-11-23T08:30:33.938Z,2.30
2018-11-23T08:32:37.162Z,0.60
2018-11-23T08:34:40.355Z,0.80
2018-11-23T08:36:44.338Z,1.50
2018-11-23T08:38:47.631Z,0.70
2018-11-23T08:40:50.915Z,0.90
2018-11-23T08:42:56.118Z,2.90
2018-11-23T08:44:59.837Z,1.30
2018-11-23T08:47:03.598Z,2.10
2018-11-23T08:49:06.773Z,1.50
2018-11-23T08:51:09.934Z,1.60
2018-11-23T08:53:14.154Z,1.60
2018-11-23T08:55:18.112Z,2.00
2018-11-23T08:57:21.293Z,1.80
2018-11-23T08:59:24.437Z,1.90
2018-11-23T09:01:27.630Z,1.60
2018-11-23T09:03:30.898Z,2.10
2018-11-23T09:05:34.054Z,2.00
2018-11-23T09:07:37.369Z,2.30
2018-11-23T09:09:40.618Z,2.70
2018-11-23T09:11:45.432Z,2.50
2018-11-23T09:13:51.161Z,2.90
2018-11-23T09:15:54.422Z,5.70
2018-11-23T09:17:57.666Z,3.10
2018-11-23T09:20:01.818Z,3.50
2018-11-23T09:22:05.507Z,3.70
2018-11-23T09:24:09.647Z,3.90
2018-11-23T09:26:14.047Z,4.20
2018-11-23T09:28:17.733Z,4.60
2018-11-23T09:30:22.488Z,7.80
2018-11-23T09:32:25.734Z,6.70
2018-11-23T09:34:31.142Z,8.60
2018-11-23T09:36:34.388Z,10.20
2018-11-23T09:38:39.552Z,12.00
2018-11-23T09:40:43.723Z,13.10
2018-11-23T09:42:47.290Z,14.20
2018-11-23T09:44:52.202Z,14.90
2018-11-23T09:46:55.470Z,15.60
2018-11-23T09:48:58.782Z,13.10
2018-11-23T09:51:02.083Z,16.60
2018-11-23T09:53:05.723Z,18.10
2018-11-23T09:55:11.429Z,18.70
2018-11-23T09:57:16.317Z,19.10
2018-11-23T09:59:19.776Z,18.70
2018-11-23T10:01:23.111Z,18.50
2018-11-23T10:03:26.390Z,20.30
2018-11-23T10:05:31.430Z,18.30
2018-11-23T10:07:34.670Z,19.70
2018-11-23T10:09:37.926Z,19.00
2018-11-23T10:11:41.250Z,19.30
2018-11-23T10:13:45.613Z,19.20
2018-11-23T10:15:51.086Z,18.50
2018-11-23T10:17:54.485Z,17.00
2018-11-23T10:22:00.738Z,16.70
2018-11-23T10:24:04.277Z,16.30
2018-11-23T10:26:08.389Z,16.40
2018-11-23T10:28:11.956Z,16.40
2018-11-23T10:30:18.305Z,16.90
2018-11-23T10:32:21.604Z,18.30
2018-11-23T10:34:25.602Z,20.30
2018-11-23T10:36:30.574Z,22.40
2018-11-23T10:38:33.822Z,20.40
2018-11-23T10:40:39.675Z,21.00
2018-11-23T10:42:44.046Z,21.80
2018-11-23T10:44:47.548Z,22.50
2018-11-23T10:46:51.764Z,23.40
2018-11-23T10:48:55.093Z,23.50
2018-11-23T10:50:58.402Z,23.80
2018-11-23T10:53:02.328Z,24.30
2018-11-23T10:55:07.899Z,21.90
2018-11-23T10:57:13.501Z,24.80
2018-11-23T10:59:17.927Z,23.60
2018-11-23T11:03:33.865Z,24.20
2018-11-23T11:05:43.090Z,24.10
2018-11-23T11:07:47.690Z,24.30
2018-11-23T11:09:51.082Z,27.80
2018-11-23T11:11:55.978Z,24.60
2018-11-23T11:14:00.590Z,24.50
2018-11-23T11:16:03.870Z,24.60
2018-11-23T11:18:08.218Z,25.00
2018-11-23T11:20:19.431Z,26.10
2018-11-23T11:22:22.723Z,23.20
2018-11-23T11:24:26.034Z,26.80
2018-11-23T11:26:29.935Z,28.60
2018-11-23T11:28:33.918Z,27.10
2018-11-23T11:30:37.630Z,26.70
2018-11-23T11:32:41.162Z,26.60
2018-11-23T11:34:45.178Z,26.40
2018-11-23T11:36:48.740Z,26.10
2018-11-23T11:40:57.232Z,26.40
2018-11-23T11:43:01.194Z,27.20
2018-11-23T11:45:07.267Z,26.50
2018-11-23T11:47:11.279Z,27.00
2018-11-23T11:49:16.048Z,27.60
2018-11-23T11:51:19.645Z,27.70
2018-11-23T11:53:22.956Z,23.50
2018-11-23T11:55:26.246Z,27.00
2018-11-23T11:57:31.001Z,27.40
2018-11-23T11:59:37.843Z,27.90
2018-11-23T12:01:41.514Z,28.20
2018-11-23T12:03:45.787Z,28.50
2018-11-23T12:05:49.735Z,27.90
2018-11-23T12:09:57.808Z,28.40
2018-11-23T12:12:01.440Z,28.20
2018-11-23T12:14:05.141Z,28.30
2018-11-23T12:16:08.387Z,28.40
2018-11-23T12:18:11.630Z,25.60
2018-11-23T12:20:20.742Z,25.00
2018-11-23T12:22:24.221Z,25.10
2018-11-23T12:24:27.437Z,25.80
2018-11-23T12:26:30.727Z,25.50
2018-11-23T12:28:34.551Z,25.80
2018-11-23T12:30:38.678Z,27.30
2018-11-23T12:32:43.677Z,27.80
2018-11-23T12:34:47.246Z,27.50
2018-11-23T12:36:50.738Z,27.70
2018-11-23T12:38:55.109Z,28.30
2018-11-23T12:41:01.907Z,28.50
2018-11-23T12:43:05.318Z,27.90
2018-11-23T12:45:10.829Z,28.20
2018-11-23T12:47:14.802Z,27.80
2018-11-23T12:49:18.462Z,27.00
2018-11-23T12:51:22.853Z,26.80
2018-11-23T12:53:26.309Z,26.80
2018-11-23T12:55:29.552Z,26.60
2018-11-23T12:57:33.265Z,27.40
2018-11-23T12:59:36.506Z,27.60
2018-11-23T13:01:41.976Z,28.00
2018-11-23T13:03:46.377Z,27.30
2018-11-23T13:05:49.902Z,26.70
2018-11-23T13:07:54.210Z,26.00
2018-11-23T13:09:57.857Z,26.30
2018-11-23T13:12:02.326Z,27.30
2018-11-23T13:14:06.534Z,27.20
2018-11-23T13:16:10.912Z,27.10
2018-11-23T13:18:15.087Z,26.40
2018-11-23T13:20:19.130Z,24.40
2018-11-23T13:22:24.835Z,23.90
2018-11-23T13:24:28.172Z,20.00
2018-11-23T13:26:31.610Z,22.10
2018-11-23T13:28:34.986Z,22.00
2018-11-23T13:30:38.297Z,22.00
2018-11-23T13:32:42.824Z,21.70
2018-11-23T13:34:47.624Z,22.40
2018-11-23T13:36:51.010Z,22.60
2018-11-23T13:38:55.557Z,23.20
2018-11-23T13:40:58.830Z,23.30
2018-11-23T13:43:05.938Z,23.50
2018-11-23T13:45:11.366Z,22.90
2018-11-23T13:47:15.190Z,22.50
2018-11-23T13:49:18.862Z,22.10
2018-11-23T13:53:27.635Z,22.50
2018-11-23T13:55:30.962Z,22.00
2018-11-23T13:57:34.210Z,21.70
2018-11-23T14:01:40.522Z,20.80
2018-11-23T14:03:48.177Z,19.60
2018-11-23T14:05:51.737Z,18.60
2018-11-23T14:07:56.624Z,17.70
2018-11-23T14:10:00.443Z,16.80
2018-11-23T14:12:03.764Z,19.40
2018-11-23T14:14:08.249Z,16.60
2018-11-23T14:16:11.490Z,16.00
2018-11-23T14:18:15.818Z,15.50
2018-11-23T14:22:26.042Z,14.90
2018-11-23T14:24:31.642Z,15.30
2018-11-23T14:26:35.446Z,15.60
2018-11-23T14:28:38.706Z,15.80
2018-11-23T14:30:42.007Z,16.30
2018-11-23T14:32:46.237Z,16.30
2018-11-23T14:34:50.917Z,16.60
2018-11-23T14:36:54.345Z,20.20
2018-11-23T14:38:57.652Z,17.10
2018-11-23T14:41:00.926Z,16.70
2018-11-23T14:43:04.379Z,16.60
2018-11-23T14:45:12.072Z,16.20
2018-11-23T14:47:16.449Z,16.10
2018-11-23T14:49:20.022Z,15.60
2018-11-23T14:51:23.438Z,14.90
2018-11-23T14:53:27.034Z,14.20
2018-11-23T14:55:31.653Z,13.90
2018-11-23T14:57:35.129Z,13.30
2018-11-23T15:01:42.368Z,12.30
2018-11-23T15:03:46.567Z,11.20
2018-11-23T15:05:52.286Z,11.10
2018-11-23T15:07:56.059Z,10.40
2018-11-23T15:09:59.294Z,9.20
2018-11-23T15:12:02.550Z,9.20
2018-11-23T15:14:07.091Z,8.30
2018-11-23T15:16:11.526Z,8.00
2018-11-23T15:18:14.934Z,7.60
2018-11-23T15:20:21.802Z,7.30
2018-11-23T15:22:25.199Z,6.90
2018-11-23T15:24:28.458Z,7.20
2018-11-23T15:26:35.921Z,7.00
2018-11-23T15:28:39.192Z,6.50
2018-11-23T15:30:43.370Z,6.20
2018-11-23T15:32:47.608Z,6.10
2018-11-23T15:34:52.023Z,6.10
2018-11-23T15:36:56.306Z,5.20
2018-11-23T15:38:59.571Z,5.80
2018-11-23T15:41:02.824Z,5.60
2018-11-23T15:43:07.422Z,5.60
2018-11-23T15:45:13.503Z,5.60
2018-11-23T15:47:18.931Z,5.50
2018-11-23T15:49:22.339Z,5.30
2018-11-23T15:51:26.378Z,5.40
2018-11-23T15:55:34.046Z,5.40
2018-11-23T15:57:38.146Z,9.30
2018-11-23T15:59:41.418Z,5.20
2018-11-23T16:01:44.752Z,5.20
2018-11-23T16:03:48.958Z,5.10
2018-11-23T16:08:02.321Z,5.00
2018-11-23T16:10:11.693Z,4.80
2018-11-23T16:12:15.066Z,4.90
2018-11-23T16:14:19.950Z,4.80
2018-11-23T16:16:23.898Z,7.20
2018-11-23T16:20:33.727Z,2.60
2018-11-23T16:22:37.012Z,5.00
2018-11-23T16:24:40.435Z,5.00
2018-11-23T16:26:43.897Z,4.80
2018-11-23T16:28:50.942Z,5.00
2018-11-23T16:30:54.430Z,4.60
2018-11-23T16:32:59.179Z,4.50
2018-11-23T16:37:06.047Z,4.50
2018-11-23T16:39:12.521Z,4.30
2018-11-23T16:41:16.050Z,4.20
2018-11-23T16:43:21.802Z,4.40
2018-11-23T16:45:27.479Z,4.60
2018-11-23T16:47:31.744Z,4.40
2018-11-23T16:49:37.171Z,4.20
2018-11-23T16:51:41.133Z,4.20
2018-11-23T16:53:45.170Z,2.20
2018-11-23T16:57:58.199Z,5.90
2018-11-23T17:00:03.575Z,3.80
2018-11-23T17:02:08.032Z,2.40
2018-11-23T17:04:11.956Z,4.10
2018-11-23T17:06:16.030Z,4.00
2018-11-23T17:13:20.064Z,1.30
2018-11-23T17:15:25.591Z,3.50
2018-11-23T17:17:29.971Z,3.70
2018-11-23T17:19:33.907Z,4.90
2018-11-23T17:21:37.663Z,3.40
2018-11-23T17:23:42.486Z,3.50
2018-11-23T17:25:46.747Z,3.70
2018-11-23T17:27:51.184Z,3.60
2018-11-23T17:29:55.296Z,3.70
2018-11-23T17:31:59.575Z,3.60
2018-11-23T17:34:07.103Z,3.60
2018-11-23T17:36:10.804Z,3.50
2018-11-23T17:38:15.449Z,3.60
2018-11-23T17:40:21.296Z,3.40
2018-11-23T17:42:25.861Z,3.80
2018-11-23T17:44:30.913Z,3.50
2018-11-23T17:46:34.888Z,3.40
2018-11-23T17:48:38.863Z,3.80
2018-11-23T17:50:42.626Z,3.80
2018-11-23T17:52:47.692Z,4.10
2018-11-23T17:54:54.921Z,3.90
2018-11-23T17:56:59.549Z,3.60
2018-11-23T17:59:03.300Z,3.80
2018-11-23T18:01:07.197Z,5.70
2018-11-23T18:05:16.866Z,3.70
2018-11-23T18:07:21.253Z,4.10
2018-11-23T18:09:25.442Z,5.40
2018-11-23T18:11:29.422Z,3.70
2018-11-23T18:13:33.322Z,1.40
2018-11-23T18:15:41.837Z,3.90
2018-11-23T18:17:47.389Z,3.60
2018-11-23T18:19:51.641Z,3.70
2018-11-23T18:21:55.525Z,1.20
2018-11-23T18:23:59.706Z,6.10
2018-11-23T18:26:04.623Z,2.70
2018-11-23T18:28:08.888Z,3.30
2018-11-23T18:30:13.165Z,3.40
2018-11-23T18:32:17.272Z,3.40
2018-11-23T18:34:21.505Z,3.20
2018-11-23T18:36:29.283Z,3.30
2018-11-23T18:40:37.734Z,2.90
2018-11-23T18:42:40.629Z,3.00
2018-11-23T18:46:50.583Z,2.90
2018-11-23T18:50:58.637Z,3.10
2018-11-23T18:53:02.371Z,3.10
2018-11-23T18:55:06.708Z,3.00
2018-11-23T18:57:12.081Z,3.10
2018-11-23T18:59:16.080Z,3.40
2018-11-23T19:01:21.702Z,3.20
2018-11-23T19:03:25.806Z,3.30
2018-11-23T19:05:30.321Z,2.60
2018-11-23T19:07:35.157Z,3.10
2018-11-23T19:09:38.956Z,3.00
2018-11-23T19:11:43.305Z,2.90
2018-11-23T19:13:47.029Z,3.00
2018-11-23T19:15:52.291Z,-1.50
2018-11-23T19:17:59.811Z,2.90
2018-11-23T19:20:03.865Z,3.00
2018-11-23T19:22:07.936Z,3.00
2018-11-23T19:24:13.135Z,2.90
2018-11-23T19:26:16.826Z,2.80
2018-11-23T19:28:23.840Z,2.60
2018-11-23T19:30:28.531Z,3.10
2018-11-23T19:32:32.467Z,2.70
2018-11-23T19:34:36.104Z,3.00
2018-11-23T19:36:40.108Z,3.00
2018-11-23T19:38:45.957Z,3.00
2018-11-23T19:40:50.562Z,2.90
2018-11-23T19:42:55.427Z,2.80
2018-11-23T19:47:03.078Z,0.90
2018-11-23T19:49:08.044Z,2.70
2018-11-23T19:51:12.027Z,2.50
2018-11-23T19:57:23.836Z,2.60
2018-11-23T19:59:30.008Z,2.60
2018-11-23T20:01:33.940Z,2.40
2018-11-23T20:03:38.531Z,2.40
2018-11-23T20:05:42.735Z,2.40
2018-11-23T20:07:47.492Z,2.40
2018-11-23T20:09:53.364Z,2.40
2018-11-23T20:12:02.085Z,2.30
2018-11-23T20:14:07.947Z,2.40
2018-11-23T20:16:11.631Z,2.50
2018-11-23T20:18:19.139Z,2.40
2018-11-23T20:20:25.253Z,2.40
2018-11-23T20:22:28.980Z,2.40
2018-11-23T20:24:32.899Z,2.40
2018-11-23T20:26:36.859Z,2.40
2018-11-23T20:28:40.523Z,2.40
2018-11-23T20:32:05.555Z,2.30
2018-11-23T20:34:09.262Z,2.30
2018-11-23T20:36:12.977Z,2.30
2018-11-23T20:38:17.704Z,2.20
2018-11-23T20:40:23.239Z,2.20
2018-11-23T20:42:28.419Z,2.10
2018-11-23T20:44:32.581Z,2.10
2018-11-23T20:46:37.171Z,2.00
2018-11-23T20:48:41.402Z,2.00
2018-11-23T20:50:45.791Z,2.10
2018-11-23T20:52:50.774Z,2.00
2018-11-23T20:54:54.443Z,2.00
2018-11-23T20:56:58.165Z,2.00
2018-11-23T20:59:03.739Z,2.00
2018-11-23T21:01:07.436Z,1.90
2018-11-23T21:03:13.716Z,1.90
2018-11-23T21:05:18.346Z,1.90
2018-11-23T21:07:22.107Z,1.90
2018-11-23T21:09:31.036Z,1.90
2018-11-23T21:11:30.056Z,1.90
2018-11-23T21:13:35.055Z,1.90
2018-11-23T21:17:42.723Z,1.80
2018-11-23T21:19:47.283Z,1.80
2018-11-23T21:21:52.658Z,4.90
2018-11-23T21:23:57.431Z,1.80
2018-11-23T21:26:01.408Z,1.70
2018-11-23T21:28:06.026Z,1.90
2018-11-23T21:30:14.964Z,1.80
2018-11-23T21:32:19.478Z,1.70
2018-11-23T21:34:24.653Z,1.70
2018-11-23T21:36:28.667Z,1.80
2018-11-23T21:38:32.964Z,1.50
2018-11-23T21:40:36.680Z,1.60
2018-11-23T21:42:40.694Z,1.60
2018-11-23T21:44:45.740Z,1.50
2018-11-23T21:46:50.128Z,1.70
2018-11-23T21:48:54.336Z,1.70
2018-11-23T21:50:58.561Z,1.50
2018-11-23T21:53:02.269Z,1.50
2018-11-23T21:55:09.883Z,1.50
2018-11-23T21:57:14.784Z,1.60
2018-11-23T21:59:20.624Z,1.50
2018-11-23T22:01:24.547Z,1.50
2018-11-23T22:05:34.014Z,1.20
2018-11-23T22:07:38.563Z,1.30
2018-11-23T22:09:42.738Z,1.20
2018-11-23T22:11:52.314Z,1.20
2018-11-23T22:13:51.801Z,1.40
2018-11-23T22:15:57.779Z,-2.40
2018-11-23T22:18:01.859Z,1.50
2018-11-23T22:20:11.859Z,3.30
2018-11-23T22:22:15.795Z,1.50
2018-11-23T22:24:20.820Z,1.40
2018-11-23T22:26:27.102Z,1.70
2018-11-23T22:28:31.180Z,1.50
2018-11-23T22:30:35.126Z,1.80
2018-11-23T22:32:38.800Z,1.80
2018-11-23T22:34:42.703Z,3.90
2018-11-23T22:38:51.959Z,1.90
2018-11-23T22:40:56.201Z,1.90
2018-11-23T22:43:00.550Z,1.90
2018-11-23T22:47:11.596Z,1.90
2018-11-23T22:49:15.637Z,2.10
2018-11-23T22:51:20.341Z,1.90
2018-11-23T22:53:24.463Z,2.10
2018-11-23T22:55:28.808Z,2.10
2018-11-23T22:57:34.629Z,2.20
2018-11-23T22:59:38.575Z,1.10
2018-11-23T23:01:43.943Z,1.60
2018-11-23T23:03:47.842Z,2.70
2018-11-23T23:05:53.039Z,1.70
2018-11-23T23:07:59.608Z,0.70
2018-11-23T23:10:03.747Z,1.70
2018-11-23T23:12:07.731Z,4.20
2018-11-23T23:14:11.813Z,1.80
2018-11-23T23:16:15.859Z,1.70
2018-11-23T23:18:21.180Z,1.60
2018-11-23T23:20:26.768Z,1.30
2018-11-23T23:22:30.821Z,1.60
2018-11-23T23:26:38.704Z,1.60
2018-11-23T23:28:44.620Z,1.70
2018-11-23T23:30:48.814Z,1.60
2018-11-23T23:32:53.699Z,0.90
2018-11-23T23:37:01.507Z,3.80
2018-11-23T23:39:08.891Z,1.60
2018-11-23T23:41:13.276Z,1.60
2018-11-23T23:43:17.297Z,1.80
2018-11-23T23:45:21.660Z,1.90
2018-11-23T23:47:25.707Z,1.70
2018-11-23T23:49:31.229Z,2.00
2018-11-23T23:51:35.283Z,2.50
2018-11-23T23:53:39.735Z,2.10
2018-11-23T23:55:43.508Z,2.10
2018-11-23T23:57:49.567Z,2.10
2018-11-23T23:59:54.998Z,1.70
